Pikesville, Maryland
Current Conditions -  °F | °C
As of 5:54 PM on Thursday 18 Dec 2014 (Local Time) from KBWI Reporting Station
Broken Clouds Broken Clouds  
Wind Chill: 31°   Ceiling: 3800
Heat Index: 35°   Visibility: 10mi
Dew Point: 22°   Wind: 5mph
Humidity: 59%   Direction: 300°WNW
Pressure: 30.09"   Gusts: NA
Location:  39.38°N, 76.72°W
Report Text: KBWI 182254Z 30004KT 10SM BKN038 BKN160 BKN210 02/M06 A3009 RMK AO2 SLP192 T00171056
Loading
Personal Weather Stations






























Interactive Weather Map New forecast layout! Learn more

10-Day Weather Forecast

Advertisements
Track Severe Weather on mobile